sensor_id;sensor_type;location;lat;lon;timestamp;temperature;humidity
10300;DHT22;5195;48.562;9.192;2023-01-08T00:02:13;9.00;51.40
10300;DHT22;5195;48.562;9.192;2023-01-08T00:04:39;9.10;51.50
10300;DHT22;5195;48.562;9.192;2023-01-08T00:07:04;8.90;51.50
10300;DHT22;5195;48.562;9.192;2023-01-08T00:09:30;8.60;51.90
10300;DHT22;5195;48.562;9.192;2023-01-08T00:11:55;8.20;52.20
10300;DHT22;5195;48.562;9.192;2023-01-08T00:14:21;7.90;52.50
10300;DHT22;5195;48.562;9.192;2023-01-08T00:16:46;8.00;52.80
10300;DHT22;5195;48.562;9.192;2023-01-08T00:19:12;8.00;52.60
10300;DHT22;5195;48.562;9.192;2023-01-08T00:21:38;7.80;53.00
10300;DHT22;5195;48.562;9.192;2023-01-08T00:24:04;7.80;53.80
10300;DHT22;5195;48.562;9.192;2023-01-08T00:26:32;7.80;53.80
10300;DHT22;5195;48.562;9.192;2023-01-08T00:28:57;7.80;53.50
10300;DHT22;5195;48.562;9.192;2023-01-08T00:31:23;7.60;53.70
10300;DHT22;5195;48.562;9.192;2023-01-08T00:33:49;7.70;54.50
10300;DHT22;5195;48.562;9.192;2023-01-08T00:36:16;7.70;54.50
10300;DHT22;5195;48.562;9.192;2023-01-08T00:38:40;7.70;54.10
10300;DHT22;5195;48.562;9.192;2023-01-08T00:41:07;7.90;53.50
10300;DHT22;5195;48.562;9.192;2023-01-08T00:43:32;7.80;53.00
10300;DHT22;5195;48.562;9.192;2023-01-08T00:45:58;7.90;52.80
10300;DHT22;5195;48.562;9.192;2023-01-08T00:48:24;7.60;53.70
10300;DHT22;5195;48.562;9.192;2023-01-08T00:50:50;7.60;53.10
10300;DHT22;5195;48.562;9.192;2023-01-08T00:53:16;7.40;53.40
10300;DHT22;5195;48.562;9.192;2023-01-08T00:55:41;7.60;53.80
10300;DHT22;5195;48.562;9.192;2023-01-08T00:58:06;7.60;53.60
10300;DHT22;5195;48.562;9.192;2023-01-08T01:00:32;7.80;54.00
10300;DHT22;5195;48.562;9.192;2023-01-08T01:02:58;8.40;52.70
10300;DHT22;5195;48.562;9.192;2023-01-08T01:05:24;8.30;52.60
10300;DHT22;5195;48.562;9.192;2023-01-08T01:07:49;8.30;52.60
10300;DHT22;5195;48.562;9.192;2023-01-08T01:10:15;8.00;52.90
10300;DHT22;5195;48.562;9.192;2023-01-08T01:12:41;7.70;53.30
10300;DHT22;5195;48.562;9.192;2023-01-08T01:15:07;7.50;53.70
10300;DHT22;5195;48.562;9.192;2023-01-08T01:17:32;7.70;53.90
10300;DHT22;5195;48.562;9.192;2023-01-08T01:19:57;7.70;53.60
10300;DHT22;5195;48.562;9.192;2023-01-08T01:22:23;7.60;53.80
10300;DHT22;5195;48.562;9.192;2023-01-08T01:24:49;7.70;54.20
10300;DHT22;5195;48.562;9.192;2023-01-08T01:27:14;7.80;54.10
10300;DHT22;5195;48.562;9.192;2023-01-08T01:29:40;7.90;53.80
10300;DHT22;5195;48.562;9.192;2023-01-08T01:32:05;8.00;53.60
10300;DHT22;5195;48.562;9.192;2023-01-08T01:34:31;7.70;53.70
10300;DHT22;5195;48.562;9.192;2023-01-08T01:36:58;7.60;54.00
10300;DHT22;5195;48.562;9.192;2023-01-08T01:39:23;7.50;54.30
10300;DHT22;5195;48.562;9.192;2023-01-08T01:41:49;7.70;54.50
10300;DHT22;5195;48.562;9.192;2023-01-08T01:47:01;8.50;53.50
10300;DHT22;5195;48.562;9.192;2023-01-08T01:49:25;8.80;52.80
10300;DHT22;5195;48.562;9.192;2023-01-08T01:51:52;8.70;52.80
10300;DHT22;5195;48.562;9.192;2023-01-08T01:54:17;8.70;52.90
10300;DHT22;5195;48.562;9.192;2023-01-08T01:56:42;8.90;52.50
10300;DHT22;5195;48.562;9.192;2023-01-08T01:59:08;9.10;51.80
10300;DHT22;5195;48.562;9.192;2023-01-08T02:01:35;8.90;52.10
10300;DHT22;5195;48.562;9.192;2023-01-08T02:04:01;8.90;52.10
10300;DHT22;5195;48.562;9.192;2023-01-08T02:09:12;8.50;52.70
10300;DHT22;5195;48.562;9.192;2023-01-08T02:11:46;8.90;53.20
10300;DHT22;5195;48.562;9.192;2023-01-08T02:14:21;8.90;52.50
10300;DHT22;5195;48.562;9.192;2023-01-08T02:16:58;8.50;52.80
10300;DHT22;5195;48.562;9.192;2023-01-08T02:19:27;8.50;52.80
10300;DHT22;5195;48.562;9.192;2023-01-08T02:22:12;8.60;53.10
10300;DHT22;5195;48.562;9.192;2023-01-08T02:24:19;8.90;52.50
10300;DHT22;5195;48.562;9.192;2023-01-08T02:26:41;8.80;52.30
10300;DHT22;5195;48.562;9.192;2023-01-08T02:31:34;8.70;52.60
10300;DHT22;5195;48.562;9.192;2023-01-08T02:33:59;8.90;52.00
10300;DHT22;5195;48.562;9.192;2023-01-08T02:36:26;9.10;51.70
10300;DHT22;5195;48.562;9.192;2023-01-08T02:39:03;9.00;51.70
10300;DHT22;5195;48.562;9.192;2023-01-08T02:41:29;9.00;52.70
10300;DHT22;5195;48.562;9.192;2023-01-08T02:43:51;8.80;52.20
10300;DHT22;5195;48.562;9.192;2023-01-08T02:46:18;8.60;52.60
10300;DHT22;5195;48.562;9.192;2023-01-08T02:48:46;8.60;52.90
10300;DHT22;5195;48.562;9.192;2023-01-08T02:51:21;8.90;52.60
10300;DHT22;5195;48.562;9.192;2023-01-08T02:53:47;8.80;53.10
10300;DHT22;5195;48.562;9.192;2023-01-08T02:56:20;8.90;52.60
10300;DHT22;5195;48.562;9.192;2023-01-08T07:07:55;9.80;56.30
10300;DHT22;5195;48.562;9.192;2023-01-08T07:10:20;9.90;56.60
10300;DHT22;5195;48.562;9.192;2023-01-08T07:12:46;9.90;56.50
10300;DHT22;5195;48.562;9.192;2023-01-08T07:15:12;9.30;57.00
10300;DHT22;5195;48.562;9.192;2023-01-08T07:17:38;9.30;57.00
10300;DHT22;5195;48.562;9.192;2023-01-08T07:20:04;9.30;57.80
10300;DHT22;5195;48.562;9.192;2023-01-08T07:22:29;9.50;57.70
10300;DHT22;5195;48.562;9.192;2023-01-08T07:24:55;9.70;57.50
10300;DHT22;5195;48.562;9.192;2023-01-08T07:27:20;9.80;57.20
10300;DHT22;5195;48.562;9.192;2023-01-08T07:29:46;9.90;57.10
10300;DHT22;5195;48.562;9.192;2023-01-08T07:32:12;9.70;57.90
10300;DHT22;5195;48.562;9.192;2023-01-08T07:34:38;9.70;57.90
10300;DHT22;5195;48.562;9.192;2023-01-08T07:37:03;9.90;58.10
10300;DHT22;5195;48.562;9.192;2023-01-08T07:39:29;10.00;56.90
10300;DHT22;5195;48.562;9.192;2023-01-08T07:41:55;9.90;57.80
10300;DHT22;5195;48.562;9.192;2023-01-08T07:44:21;9.90;58.50
10300;DHT22;5195;48.562;9.192;2023-01-08T07:46:48;9.70;58.40
10300;DHT22;5195;48.562;9.192;2023-01-08T07:49:14;9.70;59.00
10300;DHT22;5195;48.562;9.192;2023-01-08T07:51:40;9.80;59.60
10300;DHT22;5195;48.562;9.192;2023-01-08T07:54:06;9.70;59.50
10300;DHT22;5195;48.562;9.192;2023-01-08T07:56:31;9.70;59.30
10300;DHT22;5195;48.562;9.192;2023-01-08T07:58:57;9.70;59.70
10300;DHT22;5195;48.562;9.192;2023-01-08T08:01:22;9.70;59.50
10300;DHT22;5195;48.562;9.192;2023-01-08T08:03:48;9.70;60.10
10300;DHT22;5195;48.562;9.192;2023-01-08T08:06:14;10.00;58.90
10300;DHT22;5195;48.562;9.192;2023-01-08T08:08:41;9.90;59.50
10300;DHT22;5195;48.562;9.192;2023-01-08T08:11:06;10.00;59.00
10300;DHT22;5195;48.562;9.192;2023-01-08T08:13:33;9.90;59.80
10300;DHT22;5195;48.562;9.192;2023-01-08T08:16:05;10.00;59.30
10300;DHT22;5195;48.562;9.192;2023-01-08T08:18:30;9.90;60.00
10300;DHT22;5195;48.562;9.192;2023-01-08T08:20:57;9.50;60.60
10300;DHT22;5195;48.562;9.192;2023-01-08T08:23:22;9.50;60.60
10300;DHT22;5195;48.562;9.192;2023-01-08T08:25:48;9.30;61.00
10300;DHT22;5195;48.562;9.192;2023-01-08T08:28:13;9.20;61.30
10300;DHT22;5195;48.562;9.192;2023-01-08T08:30:39;9.40;62.00
10300;DHT22;5195;48.562;9.192;2023-01-08T08:33:05;9.80;61.60
10300;DHT22;5195;48.562;9.192;2023-01-08T08:35:31;10.10;60.00
10300;DHT22;5195;48.562;9.192;2023-01-08T08:37:56;10.30;59.30
10300;DHT22;5195;48.562;9.192;2023-01-08T08:40:24;10.30;58.50
10300;DHT22;5195;48.562;9.192;2023-01-08T08:42:57;10.30;58.50
10300;DHT22;5195;48.562;9.192;2023-01-08T08:45:21;10.00;59.10
10300;DHT22;5195;48.562;9.192;2023-01-08T08:47:47;9.70;60.60
10300;DHT22;5195;48.562;9.192;2023-01-08T08:50:13;9.70;62.00
10300;DHT22;5195;48.562;9.192;2023-01-08T08:52:39;9.70;61.90
10300;DHT22;5195;48.562;9.192;2023-01-08T08:55:05;10.00;60.60
10300;DHT22;5195;48.562;9.192;2023-01-08T08:57:30;10.30;60.00
10300;DHT22;5195;48.562;9.192;2023-01-08T08:59:56;10.50;59.40
10300;DHT22;5195;48.562;9.192;2023-01-08T09:02:21;10.70;59.10
10300;DHT22;5195;48.562;9.192;2023-01-08T09:04:47;10.50;58.90
10300;DHT22;5195;48.562;9.192;2023-01-08T09:07:12;10.50;59.50
10300;DHT22;5195;48.562;9.192;2023-01-08T09:09:38;10.60;59.20
10300;DHT22;5195;48.562;9.192;2023-01-08T09:12:04;10.50;59.50
10300;DHT22;5195;48.562;9.192;2023-01-08T09:14:30;10.40;59.40
10300;DHT22;5195;48.562;9.192;2023-01-08T09:16:55;10.60;59.20
10300;DHT22;5195;48.562;9.192;2023-01-08T09:19:22;10.60;58.60
10300;DHT22;5195;48.562;9.192;2023-01-08T09:21:48;10.60;58.60
10300;DHT22;5195;48.562;9.192;2023-01-08T09:24:14;10.30;59.10
10300;DHT22;5195;48.562;9.192;2023-01-08T09:26:41;10.60;59.70
10300;DHT22;5195;48.562;9.192;2023-01-08T09:29:06;10.50;59.60
10300;DHT22;5195;48.562;9.192;2023-01-08T09:31:32;10.50;59.40
10300;DHT22;5195;48.562;9.192;2023-01-08T09:33:57;10.30;60.00
10300;DHT22;5195;48.562;9.192;2023-01-08T09:36:23;10.40;60.50
10300;DHT22;5195;48.562;9.192;2023-01-08T09:38:49;10.20;60.50
10300;DHT22;5195;48.562;9.192;2023-01-08T09:41:30;10.20;60.50
10300;DHT22;5195;48.562;9.192;2023-01-08T09:43:54;10.00;60.90
10300;DHT22;5195;48.562;9.192;2023-01-08T09:46:21;9.90;62.20
10300;DHT22;5195;48.562;9.192;2023-01-08T09:48:46;9.80;62.50
10300;DHT22;5195;48.562;9.192;2023-01-08T09:51:12;10.00;61.80
10300;DHT22;5195;48.562;9.192;2023-01-08T09:53:38;10.10;61.30
10300;DHT22;5195;48.562;9.192;2023-01-08T09:56:08;10.00;61.30
10300;DHT22;5195;48.562;9.192;2023-01-08T09:58:37;10.20;61.50
10300;DHT22;5195;48.562;9.192;2023-01-08T10:00:58;10.50;60.70
10300;DHT22;5195;48.562;9.192;2023-01-08T10:03:29;10.50;60.20
10300;DHT22;5195;48.562;9.192;2023-01-08T10:05:53;10.60;60.30
10300;DHT22;5195;48.562;9.192;2023-01-08T10:08:19;10.90;59.90
10300;DHT22;5195;48.562;9.192;2023-01-08T10:10:47;10.80;59.60
10300;DHT22;5195;48.562;9.192;2023-01-08T10:13:13;10.60;60.00
10300;DHT22;5195;48.562;9.192;2023-01-08T10:15:39;10.70;60.20
10300;DHT22;5195;48.562;9.192;2023-01-08T10:18:05;10.90;59.50
10300;DHT22;5195;48.562;9.192;2023-01-08T10:20:31;10.70;59.60
10300;DHT22;5195;48.562;9.192;2023-01-08T10:23:07;10.50;60.50
10300;DHT22;5195;48.562;9.192;2023-01-08T10:25:23;10.50;60.00
10300;DHT22;5195;48.562;9.192;2023-01-08T10:27:59;10.30;60.90
10300;DHT22;5195;48.562;9.192;2023-01-08T10:30:44;10.20;60.50
10300;DHT22;5195;48.562;9.192;2023-01-08T10:32:50;10.20;60.80
10300;DHT22;5195;48.562;9.192;2023-01-08T10:35:18;10.30;60.70
10300;DHT22;5195;48.562;9.192;2023-01-08T10:37:40;10.30;60.70
10300;DHT22;5195;48.562;9.192;2023-01-08T10:40:19;10.80;59.60
10300;DHT22;5195;48.562;9.192;2023-01-08T10:42:41;10.80;59.00
10300;DHT22;5195;48.562;9.192;2023-01-08T10:45:15;10.70;59.30
10300;DHT22;5195;48.562;9.192;2023-01-08T10:47:36;10.60;59.70
10300;DHT22;5195;48.562;9.192;2023-01-08T10:50:03;10.70;59.20
10300;DHT22;5195;48.562;9.192;2023-01-08T10:52:32;10.70;59.20
10300;DHT22;5195;48.562;9.192;2023-01-08T10:54:58;11.10;57.80
10300;DHT22;5195;48.562;9.192;2023-01-08T10:57:25;11.50;57.10
10300;DHT22;5195;48.562;9.192;2023-01-08T10:59:49;11.70;56.30
10300;DHT22;5195;48.562;9.192;2023-01-08T11:02:36;12.00;55.70
10300;DHT22;5195;48.562;9.192;2023-01-08T11:04:57;11.90;55.70
10300;DHT22;5195;48.562;9.192;2023-01-08T11:07:24;11.60;56.20
10300;DHT22;5195;48.562;9.192;2023-01-08T11:09:50;11.70;56.10
10300;DHT22;5195;48.562;9.192;2023-01-08T11:12:36;11.90;55.40
10300;DHT22;5195;48.562;9.192;2023-01-08T11:15:01;12.20;54.90
10300;DHT22;5195;48.562;9.192;2023-01-08T11:17:26;12.10;55.10
10300;DHT22;5195;48.562;9.192;2023-01-08T11:19:52;12.10;54.90
10300;DHT22;5195;48.562;9.192;2023-01-08T11:22:21;12.10;55.00
10300;DHT22;5195;48.562;9.192;2023-01-08T11:24:46;12.10;54.60
10300;DHT22;5195;48.562;9.192;2023-01-08T11:32:08;12.50;55.30
10300;DHT22;5195;48.562;9.192;2023-01-08T11:37:13;12.50;54.50
10300;DHT22;5195;48.562;9.192;2023-01-08T11:39:36;12.40;54.70
10300;DHT22;5195;48.562;9.192;2023-01-08T11:42:16;12.40;54.70
10300;DHT22;5195;48.562;9.192;2023-01-08T11:44:52;12.40;54.70
10300;DHT22;5195;48.562;9.192;2023-01-08T11:47:18;12.50;55.00
10300;DHT22;5195;48.562;9.192;2023-01-08T11:52:33;12.30;55.40
10300;DHT22;5195;48.562;9.192;2023-01-08T12:08:24;12.40;54.40
10300;DHT22;5195;48.562;9.192;2023-01-08T12:11:13;12.40;54.10
10300;DHT22;5195;48.562;9.192;2023-01-08T12:13:54;12.20;54.30
10300;DHT22;5195;48.562;9.192;2023-01-08T12:19:44;12.30;53.70
10300;DHT22;5195;48.562;9.192;2023-01-08T12:25:19;12.20;53.90
10300;DHT22;5195;48.562;9.192;2023-01-08T12:36:16;12.50;52.70
10300;DHT22;5195;48.562;9.192;2023-01-08T12:38:42;12.10;54.60
10300;DHT22;5195;48.562;9.192;2023-01-08T12:41:08;12.10;53.90
10300;DHT22;5195;48.562;9.192;2023-01-08T12:43:37;12.00;54.20
10300;DHT22;5195;48.562;9.192;2023-01-08T12:45:58;12.20;53.90
10300;DHT22;5195;48.562;9.192;2023-01-08T12:48:24;12.20;53.70
10300;DHT22;5195;48.562;9.192;2023-01-08T12:51:09;12.70;52.30
10300;DHT22;5195;48.562;9.192;2023-01-08T12:53:43;13.00;51.40
10300;DHT22;5195;48.562;9.192;2023-01-08T13:02:11;12.50;52.20
10300;DHT22;5195;48.562;9.192;2023-01-08T13:04:39;12.20;52.80
10300;DHT22;5195;48.562;9.192;2023-01-08T13:07:03;12.40;52.90
10300;DHT22;5195;48.562;9.192;2023-01-08T13:09:29;12.40;52.90
10300;DHT22;5195;48.562;9.192;2023-01-08T13:11:55;12.20;53.30
10300;DHT22;5195;48.562;9.192;2023-01-08T13:14:20;12.00;53.60
10300;DHT22;5195;48.562;9.192;2023-01-08T13:16:46;12.10;53.70
10300;DHT22;5195;48.562;9.192;2023-01-08T13:19:25;12.20;53.70
10300;DHT22;5195;48.562;9.192;2023-01-08T13:21:50;12.00;53.80
10300;DHT22;5195;48.562;9.192;2023-01-08T13:24:36;12.10;52.90
10300;DHT22;5195;48.562;9.192;2023-01-08T13:29:47;11.90;53.20
10300;DHT22;5195;48.562;9.192;2023-01-08T13:32:43;12.10;52.40
10300;DHT22;5195;48.562;9.192;2023-01-08T13:37:41;12.60;51.80
10300;DHT22;5195;48.562;9.192;2023-01-08T13:42:58;12.70;51.50
10300;DHT22;5195;48.562;9.192;2023-01-08T13:45:25;12.90;51.10
10300;DHT22;5195;48.562;9.192;2023-01-08T13:47:49;12.80;51.30
10300;DHT22;5195;48.562;9.192;2023-01-08T13:50:17;12.80;51.40
10300;DHT22;5195;48.562;9.192;2023-01-08T13:52:45;12.80;51.80
10300;DHT22;5195;48.562;9.192;2023-01-08T13:57:41;13.20;50.80
10300;DHT22;5195;48.562;9.192;2023-01-08T14:00:07;13.70;49.40
10300;DHT22;5195;48.562;9.192;2023-01-08T14:02:33;13.70;49.30
10300;DHT22;5195;48.562;9.192;2023-01-08T14:04:58;13.90;49.00
10300;DHT22;5195;48.562;9.192;2023-01-08T14:07:23;14.10;48.00
10300;DHT22;5195;48.562;9.192;2023-01-08T14:09:49;13.90;48.30
10300;DHT22;5195;48.562;9.192;2023-01-08T14:12:20;13.50;48.20
10300;DHT22;5195;48.562;9.192;2023-01-08T14:14:55;13.60;48.30
10300;DHT22;5195;48.562;9.192;2023-01-08T14:17:24;13.70;48.30
10300;DHT22;5195;48.562;9.192;2023-01-08T14:19:49;13.80;47.90
10300;DHT22;5195;48.562;9.192;2023-01-08T14:22:27;13.60;49.00
10300;DHT22;5195;48.562;9.192;2023-01-08T14:24:48;13.50;48.60
10300;DHT22;5195;48.562;9.192;2023-01-08T14:27:24;13.40;48.50
10300;DHT22;5195;48.562;9.192;2023-01-08T14:29:48;13.30;49.20
10300;DHT22;5195;48.562;9.192;2023-01-08T14:32:20;13.40;49.40
10300;DHT22;5195;48.562;9.192;2023-01-08T14:34:44;13.30;49.20
10300;DHT22;5195;48.562;9.192;2023-01-08T14:37:13;13.20;49.60
10300;DHT22;5195;48.562;9.192;2023-01-08T14:39:38;12.90;50.20
10300;DHT22;5195;48.562;9.192;2023-01-08T14:42:19;12.90;50.20
10300;DHT22;5195;48.562;9.192;2023-01-08T14:45:04;13.10;49.90
10300;DHT22;5195;48.562;9.192;2023-01-08T14:47:29;12.90;50.10
10300;DHT22;5195;48.562;9.192;2023-01-08T14:49:54;12.90;50.20
10300;DHT22;5195;48.562;9.192;2023-01-08T14:52:19;13.10;51.10
10300;DHT22;5195;48.562;9.192;2023-01-08T14:54:49;13.00;50.50
10300;DHT22;5195;48.562;9.192;2023-01-08T14:57:14;12.70;50.90
10300;DHT22;5195;48.562;9.192;2023-01-08T14:59:39;12.70;50.60
10300;DHT22;5195;48.562;9.192;2023-01-08T15:02:06;12.90;50.20
10300;DHT22;5195;48.562;9.192;2023-01-08T15:04:30;13.10;49.70
10300;DHT22;5195;48.562;9.192;2023-01-08T15:07:04;13.00;50.00
10300;DHT22;5195;48.562;9.192;2023-01-08T15:09:32;13.00;50.00
10300;DHT22;5195;48.562;9.192;2023-01-08T15:11:58;13.10;49.70
10300;DHT22;5195;48.562;9.192;2023-01-08T15:14:23;13.30;49.50
10300;DHT22;5195;48.562;9.192;2023-01-08T15:16:49;13.00;49.60
10300;DHT22;5195;48.562;9.192;2023-01-08T15:19:15;13.00;50.10
10300;DHT22;5195;48.562;9.192;2023-01-08T15:21:50;13.10;49.90
10300;DHT22;5195;48.562;9.192;2023-01-08T15:24:31;12.90;50.00
10300;DHT22;5195;48.562;9.192;2023-01-08T15:26:54;12.50;50.60
10300;DHT22;5195;48.562;9.192;2023-01-08T15:29:26;12.50;50.90
10300;DHT22;5195;48.562;9.192;2023-01-08T15:31:48;12.40;50.90
10300;DHT22;5195;48.562;9.192;2023-01-08T15:34:17;12.40;51.10
10300;DHT22;5195;48.562;9.192;2023-01-08T15:36:41;12.30;51.20
10300;DHT22;5195;48.562;9.192;2023-01-08T15:39:07;12.20;51.30
10300;DHT22;5195;48.562;9.192;2023-01-08T15:41:36;12.20;51.30
10300;DHT22;5195;48.562;9.192;2023-01-08T15:44:22;11.90;51.60
10300;DHT22;5195;48.562;9.192;2023-01-08T15:46:47;12.00;51.90
10300;DHT22;5195;48.562;9.192;2023-01-08T15:49:12;11.90;51.80
10300;DHT22;5195;48.562;9.192;2023-01-08T15:51:43;11.90;51.80
10300;DHT22;5195;48.562;9.192;2023-01-08T15:54:08;12.20;51.80
10300;DHT22;5195;48.562;9.192;2023-01-08T15:56:32;12.40;51.40
10300;DHT22;5195;48.562;9.192;2023-01-08T15:58:58;12.20;51.30
10300;DHT22;5195;48.562;9.192;2023-01-08T16:01:24;11.80;51.80
10300;DHT22;5195;48.562;9.192;2023-01-08T16:03:50;11.60;52.50
10300;DHT22;5195;48.562;9.192;2023-01-08T16:06:15;11.60;52.50
10300;DHT22;5195;48.562;9.192;2023-01-08T16:08:41;11.60;52.60
10300;DHT22;5195;48.562;9.192;2023-01-08T16:11:06;11.40;52.90
10300;DHT22;5195;48.562;9.192;2023-01-08T16:13:33;11.10;53.50
10300;DHT22;5195;48.562;9.192;2023-01-08T16:15:58;11.10;53.50
10300;DHT22;5195;48.562;9.192;2023-01-08T16:18:24;11.00;53.80
10300;DHT22;5195;48.562;9.192;2023-01-08T16:20:57;11.30;53.80
10300;DHT22;5195;48.562;9.192;2023-01-08T16:23:15;11.30;53.50
10300;DHT22;5195;48.562;9.192;2023-01-08T16:25:41;11.50;53.30
10300;DHT22;5195;48.562;9.192;2023-01-08T16:28:07;11.50;53.30
10300;DHT22;5195;48.562;9.192;2023-01-08T16:30:33;11.20;53.70
10300;DHT22;5195;48.562;9.192;2023-01-08T16:32:59;11.20;53.70
10300;DHT22;5195;48.562;9.192;2023-01-08T16:35:24;11.00;53.90
10300;DHT22;5195;48.562;9.192;2023-01-08T16:37:50;11.20;53.80
10300;DHT22;5195;48.562;9.192;2023-01-08T16:40:15;11.60;53.20
10300;DHT22;5195;48.562;9.192;2023-01-08T16:42:42;11.70;52.70
10300;DHT22;5195;48.562;9.192;2023-01-08T16:45:07;11.60;52.30
10300;DHT22;5195;48.562;9.192;2023-01-08T16:47:37;11.60;52.40
10300;DHT22;5195;48.562;9.192;2023-01-08T16:50:03;11.50;52.50
10300;DHT22;5195;48.562;9.192;2023-01-08T16:52:28;11.50;52.50
10300;DHT22;5195;48.562;9.192;2023-01-08T16:54:54;11.40;52.40
10300;DHT22;5195;48.562;9.192;2023-01-08T16:57:19;11.20;52.70
10300;DHT22;5195;48.562;9.192;2023-01-08T16:59:45;11.30;52.60
10300;DHT22;5195;48.562;9.192;2023-01-08T17:02:11;11.60;52.00
10300;DHT22;5195;48.562;9.192;2023-01-08T17:04:36;11.50;51.90
10300;DHT22;5195;48.562;9.192;2023-01-08T17:07:02;11.20;52.20
10300;DHT22;5195;48.562;9.192;2023-01-08T17:09:27;11.00;52.60
10300;DHT22;5195;48.562;9.192;2023-01-08T17:11:53;10.80;53.00
10300;DHT22;5195;48.562;9.192;2023-01-08T17:14:21;10.90;53.30
10300;DHT22;5195;48.562;9.192;2023-01-08T17:16:48;11.10;53.30
10300;DHT22;5195;48.562;9.192;2023-01-08T17:19:14;11.00;53.20
10300;DHT22;5195;48.562;9.192;2023-01-08T17:21:39;11.40;52.80
10300;DHT22;5195;48.562;9.192;2023-01-08T17:24:06;11.30;52.70
10300;DHT22;5195;48.562;9.192;2023-01-08T17:26:31;11.00;53.00
10300;DHT22;5195;48.562;9.192;2023-01-08T17:28:57;10.80;53.40
10300;DHT22;5195;48.562;9.192;2023-01-08T17:31:23;10.60;53.70
10300;DHT22;5195;48.562;9.192;2023-01-08T17:33:49;11.10;53.30
10300;DHT22;5195;48.562;9.192;2023-01-08T17:36:16;11.20;53.40
10300;DHT22;5195;48.562;9.192;2023-01-08T17:38:40;11.10;53.10
10300;DHT22;5195;48.562;9.192;2023-01-08T17:41:05;11.00;53.40
10300;DHT22;5195;48.562;9.192;2023-01-08T17:43:32;10.90;53.80
10300;DHT22;5195;48.562;9.192;2023-01-08T17:46:00;10.90;53.80
10300;DHT22;5195;48.562;9.192;2023-01-08T17:48:23;11.30;53.50
10300;DHT22;5195;48.562;9.192;2023-01-08T17:50:48;11.60;52.80
10300;DHT22;5195;48.562;9.192;2023-01-08T17:53:14;11.80;52.10
10300;DHT22;5195;48.562;9.192;2023-01-08T17:55:40;11.90;51.60
10300;DHT22;5195;48.562;9.192;2023-01-08T17:58:05;11.80;51.90
10300;DHT22;5195;48.562;9.192;2023-01-08T18:00:32;11.50;52.50
10300;DHT22;5195;48.562;9.192;2023-01-08T18:02:57;11.40;52.40
10300;DHT22;5195;48.562;9.192;2023-01-08T18:05:23;11.40;52.50
10300;DHT22;5195;48.562;9.192;2023-01-08T18:07:50;11.20;52.90
10300;DHT22;5195;48.562;9.192;2023-01-08T18:10:16;10.90;53.10
10300;DHT22;5195;48.562;9.192;2023-01-08T18:12:41;10.80;53.50
10300;DHT22;5195;48.562;9.192;2023-01-08T18:15:07;10.70;53.80
10300;DHT22;5195;48.562;9.192;2023-01-08T18:17:33;10.60;54.00
10300;DHT22;5195;48.562;9.192;2023-01-08T18:20:00;10.80;53.90
10300;DHT22;5195;48.562;9.192;2023-01-08T18:22:25;10.80;53.50
10300;DHT22;5195;48.562;9.192;2023-01-08T18:24:51;10.70;53.70
10300;DHT22;5195;48.562;9.192;2023-01-08T18:27:16;10.60;53.90
10300;DHT22;5195;48.562;9.192;2023-01-08T18:29:42;10.80;54.00
10300;DHT22;5195;48.562;9.192;2023-01-08T18:32:10;11.20;52.70
10300;DHT22;5195;48.562;9.192;2023-01-08T18:34:36;11.20;52.50
10300;DHT22;5195;48.562;9.192;2023-01-08T18:37:05;11.00;52.70
10300;DHT22;5195;48.562;9.192;2023-01-08T18:39:30;10.80;53.00
10300;DHT22;5195;48.562;9.192;2023-01-08T18:41:56;10.90;53.00
10300;DHT22;5195;48.562;9.192;2023-01-08T18:44:42;11.30;52.50
10300;DHT22;5195;48.562;9.192;2023-01-08T18:47:07;11.20;52.40
10300;DHT22;5195;48.562;9.192;2023-01-08T18:49:33;11.30;52.30
10300;DHT22;5195;48.562;9.192;2023-01-08T18:51:58;11.60;52.10
10300;DHT22;5195;48.562;9.192;2023-01-08T18:54:24;11.50;52.00
10300;DHT22;5195;48.562;9.192;2023-01-08T18:56:50;11.70;51.40
10300;DHT22;5195;48.562;9.192;2023-01-08T18:59:17;11.60;51.50
10300;DHT22;5195;48.562;9.192;2023-01-08T19:01:42;11.60;51.50
10300;DHT22;5195;48.562;9.192;2023-01-08T19:04:15;11.90;51.30
10300;DHT22;5195;48.562;9.192;2023-01-08T19:06:40;11.90;51.30
10300;DHT22;5195;48.562;9.192;2023-01-08T19:09:06;11.70;51.40
10300;DHT22;5195;48.562;9.192;2023-01-08T19:11:31;11.40;51.80
10300;DHT22;5195;48.562;9.192;2023-01-08T19:13:57;11.20;52.40
10300;DHT22;5195;48.562;9.192;2023-01-08T19:16:23;10.90;52.70
10300;DHT22;5195;48.562;9.192;2023-01-08T19:18:48;11.10;53.60
10300;DHT22;5195;48.562;9.192;2023-01-08T19:21:14;11.10;53.30
10300;DHT22;5195;48.562;9.192;2023-01-08T19:23:39;10.90;53.50
10300;DHT22;5195;48.562;9.192;2023-01-08T19:26:05;10.70;53.80
10300;DHT22;5195;48.562;9.192;2023-01-08T19:28:30;10.90;54.90
10300;DHT22;5195;48.562;9.192;2023-01-08T19:30:57;11.50;54.70
10300;DHT22;5195;48.562;9.192;2023-01-08T19:33:23;11.50;54.70
10300;DHT22;5195;48.562;9.192;2023-01-08T19:35:48;11.70;54.40
10300;DHT22;5195;48.562;9.192;2023-01-08T19:38:14;11.90;54.40
10300;DHT22;5195;48.562;9.192;2023-01-08T19:40:39;11.70;54.30
10300;DHT22;5195;48.562;9.192;2023-01-08T19:43:08;11.50;54.80
10300;DHT22;5195;48.562;9.192;2023-01-08T19:45:53;11.50;54.80
10300;DHT22;5195;48.562;9.192;2023-01-08T19:48:18;11.50;55.10
10300;DHT22;5195;48.562;9.192;2023-01-08T19:50:44;11.40;55.00
10300;DHT22;5195;48.562;9.192;2023-01-08T19:53:09;11.10;55.30
10300;DHT22;5195;48.562;9.192;2023-01-08T19:55:35;11.10;56.00
10300;DHT22;5195;48.562;9.192;2023-01-08T19:58:00;11.40;56.40
10300;DHT22;5195;48.562;9.192;2023-01-08T20:00:26;11.30;56.20
10300;DHT22;5195;48.562;9.192;2023-01-08T20:02:52;11.00;56.50
10300;DHT22;5195;48.562;9.192;2023-01-08T20:05:17;11.10;57.00
10300;DHT22;5195;48.562;9.192;2023-01-08T20:07:44;11.50;56.60
10300;DHT22;5195;48.562;9.192;2023-01-08T20:10:10;11.50;56.60
10300;DHT22;5195;48.562;9.192;2023-01-08T20:12:35;11.60;56.20
10300;DHT22;5195;48.562;9.192;2023-01-08T20:15:00;11.40;56.20
10300;DHT22;5195;48.562;9.192;2023-01-08T20:17:26;11.00;56.60
10300;DHT22;5195;48.562;9.192;2023-01-08T20:19:52;10.70;57.20
10300;DHT22;5195;48.562;9.192;2023-01-08T20:22:19;10.70;57.70
10300;DHT22;5195;48.562;9.192;2023-01-08T20:24:45;10.90;57.80
10300;DHT22;5195;48.562;9.192;2023-01-08T20:27:10;10.90;57.80
10300;DHT22;5195;48.562;9.192;2023-01-08T20:29:36;10.60;57.40
10300;DHT22;5195;48.562;9.192;2023-01-08T20:32:02;11.00;58.30
10300;DHT22;5195;48.562;9.192;2023-01-08T20:34:28;11.00;58.20
10300;DHT22;5195;48.562;9.192;2023-01-08T20:36:53;10.80;57.80
10300;DHT22;5195;48.562;9.192;2023-01-08T20:39:19;10.60;58.20
10300;DHT22;5195;48.562;9.192;2023-01-08T20:41:45;10.30;59.30
10300;DHT22;5195;48.562;9.192;2023-01-08T20:44:10;10.10;59.10
10300;DHT22;5195;48.562;9.192;2023-01-08T20:46:36;10.30;60.00
10300;DHT22;5195;48.562;9.192;2023-01-08T20:49:03;10.60;59.80
10300;DHT22;5195;48.562;9.192;2023-01-08T20:51:27;10.90;59.30
10300;DHT22;5195;48.562;9.192;2023-01-08T20:53:53;10.80;59.00
10300;DHT22;5195;48.562;9.192;2023-01-08T20:56:18;10.50;59.40
10300;DHT22;5195;48.562;9.192;2023-01-08T20:58:44;10.60;60.30
10300;DHT22;5195;48.562;9.192;2023-01-08T21:01:11;10.50;60.00